Time;durP1;ratioP1;P1;durP2;ratioP2;P2;SDS_P1;SDS_P2;PMS_P1;PMS_P2;Temp;Humidity;BMP_temperature;BMP_pressure;BME280_temperature;BME280_humidity;BME280_pressure;Samples;Min_cycle;Max_cycle;Signal;HPM_P1;HPM_P2
2023/03/29 00:00:39;;;;;;;8.60;3.75;;;6.10;99.90;;;;;;4989976;28;20089;-52
2023/03/29 00:03:05;;;;;;;6.22;3.83;;;6.10;99.90;;;;;;5015086;28;20471;-52
2023/03/29 00:05:33;;;;;;;6.28;4.10;;;6.10;99.90;;;;;;5017600;28;20045;-54
2023/03/29 00:08:02;;;;;;;7.25;3.78;;;6.20;99.90;;;;;;4990459;28;20099;-54
2023/03/29 00:10:31;;;;;;;7.68;3.90;;;6.10;99.90;;;;;;4990675;28;20759;-56
2023/03/29 00:12:56;;;;;;;8.25;3.95;;;6.40;99.90;;;;;;4998644;28;20410;-57
2023/03/29 00:15:22;;;;;;;8.43;4.43;;;6.10;99.90;;;;;;4995819;28;20045;-54
2023/03/29 00:17:48;;;;;;;9.32;3.97;;;6.10;99.90;;;;;;4997195;28;20049;-52
2023/03/29 00:20:15;;;;;;;7.22;3.60;;;6.10;99.90;;;;;;5010769;28;20125;-52
2023/03/29 00:22:42;;;;;;;8.45;4.00;;;6.10;99.90;;;;;;4975342;28;20512;-56
2023/03/29 00:25:10;;;;;;;9.10;4.15;;;6.10;99.90;;;;;;5003525;28;20077;-53
2023/03/29 00:27:35;;;;;;;8.30;3.65;;;6.10;99.90;;;;;;4973777;28;20038;-57
2023/03/29 00:30:03;;;;;;;8.15;3.70;;;6.10;99.90;;;;;;4983893;28;20129;-54
2023/03/29 00:32:29;;;;;;;6.93;3.75;;;6.10;99.90;;;;;;5005708;28;20045;-56
2023/03/29 00:34:55;;;;;;;5.22;3.40;;;6.10;99.90;;;;;;4994364;28;20107;-54
2023/03/29 00:37:25;;;;;;;6.10;3.63;;;6.10;99.90;;;;;;5009997;28;20043;-53
2023/03/29 00:39:52;;;;;;;6.50;3.90;;;6.10;99.90;;;;;;5005973;28;20045;-53
2023/03/29 00:42:18;;;;;;;11.07;4.00;;;6.10;99.90;;;;;;4990522;28;20045;-56
2023/03/29 00:45:02;;;;;;;11.50;3.90;;;6.10;99.90;;;;;;4972130;28;20030;-56
2023/03/29 00:47:40;;;;;;;6.25;3.17;;;6.10;99.90;;;;;;5007351;28;20088;-53
2023/03/29 00:50:14;;;;;;;7.25;3.55;;;6.10;99.90;;;;;;5004958;28;20048;-53
2023/03/29 00:52:41;;;;;;;4.43;2.85;;;6.10;99.90;;;;;;4992515;28;20048;-52
2023/03/29 00:55:12;;;;;;;7.10;3.80;;;6.10;99.90;;;;;;4978974;28;20122;-58
2023/03/29 00:57:40;;;;;;;5.03;3.20;;;6.10;99.90;;;;;;5002753;28;20157;-52
2023/03/29 01:00:08;;;;;;;7.03;3.50;;;6.10;99.90;;;;;;5010290;28;20046;-56
2023/03/29 01:02:38;;;;;;;5.68;3.45;;;6.10;99.90;;;;;;5002218;28;20121;-56
2023/03/29 01:05:17;;;;;;;6.78;3.58;;;6.10;99.90;;;;;;5004620;28;20046;-57
2023/03/29 01:07:57;;;;;;;7.63;3.20;;;6.10;99.90;;;;;;5003828;28;20400;-56
2023/03/29 01:10:47;;;;;;;5.47;3.30;;;6.00;99.90;;;;;;5008105;28;20435;-54
2023/03/29 01:13:33;;;;;;;6.00;3.50;;;6.00;99.90;;;;;;5002504;28;20050;-52
2023/03/29 01:16:01;;;;;;;5.93;3.55;;;6.10;99.90;;;;;;5007283;28;20485;-54
2023/03/29 01:18:30;;;;;;;6.65;3.38;;;6.10;99.90;;;;;;4986244;28;20090;-55
2023/03/29 01:21:19;;;;;;;5.55;3.38;;;6.00;99.90;;;;;;4988584;28;20374;-52
2023/03/29 01:24:05;;;;;;;7.43;3.15;;;6.00;99.90;;;;;;4998760;28;20050;-54
2023/03/29 01:26:40;;;;;;;5.20;3.00;;;6.00;99.90;;;;;;4986624;28;20045;-53
2023/03/29 01:29:08;;;;;;;6.45;2.85;;;6.00;99.90;;;;;;4983630;28;20049;-57
2023/03/29 01:31:38;;;;;;;6.68;3.03;;;6.00;99.90;;;;;;4992788;28;20460;-54
2023/03/29 01:34:28;;;;;;;6.60;2.78;;;6.00;99.90;;;;;;5001304;28;20404;-55
2023/03/29 01:37:03;;;;;;;6.53;3.30;;;6.00;99.90;;;;;;5016911;28;20040;-53
2023/03/29 01:39:30;;;;;;;5.35;2.83;;;6.00;99.90;;;;;;5009445;28;20034;-56
2023/03/29 01:42:15;;;;;;;7.22;3.35;;;6.00;99.90;;;;;;4992450;28;20045;-53
2023/03/29 01:45:06;;;;;;;8.63;3.30;;;5.90;99.90;;;;;;5014355;28;20046;-55
2023/03/29 01:47:34;;;;;;;5.43;2.88;;;6.00;99.90;;;;;;4995731;28;20461;-52
2023/03/29 01:50:27;;;;;;;7.07;2.88;;;6.00;99.90;;;;;;5008826;28;20390;-53
2023/03/29 01:53:02;;;;;;;5.57;2.42;;;6.00;99.90;;;;;;4999733;28;20041;-54
2023/03/29 01:55:34;;;;;;;10.65;4.05;;;6.00;99.90;;;;;;4972735;28;20125;-56
2023/03/29 01:58:01;;;;;;;8.93;2.70;;;6.00;99.90;;;;;;4987195;28;20404;-54
2023/03/29 02:00:28;;;;;;;6.75;3.17;;;6.10;99.90;;;;;;4992545;28;20405;-56
2023/03/29 02:02:59;;;;;;;6.93;2.88;;;6.00;99.90;;;;;;5015518;28;20080;-56
2023/03/29 02:05:27;;;;;;;9.05;3.10;;;6.00;99.90;;;;;;4992618;28;20050;-57
2023/03/29 02:07:56;;;;;;;6.10;2.95;;;6.10;99.90;;;;;;4980842;28;20042;-53
2023/03/29 02:10:22;;;;;;;7.35;3.22;;;6.10;99.90;;;;;;4999777;28;20049;-51
2023/03/29 02:12:49;;;;;;;9.48;3.53;;;6.10;99.90;;;;;;4990205;28;20037;-55
2023/03/29 02:15:17;;;;;;;9.10;3.00;;;6.10;99.90;;;;;;4993498;28;20091;-56
2023/03/29 02:17:45;;;;;;;7.70;3.00;;;6.10;99.90;;;;;;4988985;28;20073;-56
2023/03/29 02:20:22;;;;;;;4.90;2.70;;;6.10;99.90;;;;;;5006653;28;20042;-52
2023/03/29 02:22:56;;;;;;;7.40;3.60;;;6.10;99.90;;;;;;5000386;28;20067;-53
2023/03/29 02:25:23;;;;;;;5.43;3.22;;;6.10;99.90;;;;;;5010624;28;20497;-55
2023/03/29 02:27:50;;;;;;;9.65;3.17;;;6.10;99.90;;;;;;4985680;28;20073;-55
2023/03/29 02:30:18;;;;;;;5.80;3.20;;;6.10;99.90;;;;;;5003052;28;20049;-54
2023/03/29 02:32:53;;;;;;;6.53;3.63;;;6.10;99.90;;;;;;4982369;28;20048;-56
2023/03/29 02:35:37;;;;;;;7.97;3.00;;;6.10;99.90;;;;;;5009689;28;20064;-52
2023/03/29 02:38:06;;;;;;;6.03;3.30;;;6.10;99.90;;;;;;4991412;28;20038;-55
2023/03/29 02:40:33;;;;;;;10.50;3.30;;;6.10;99.90;;;;;;4986381;28;20057;-56
2023/03/29 02:43:00;;;;;;;5.22;3.40;;;6.10;99.90;;;;;;4977562;28;20560;-56
2023/03/29 02:45:28;;;;;;;5.68;3.30;;;6.10;99.90;;;;;;5002903;28;20041;-58
2023/03/29 02:47:58;;;;;;;7.13;3.40;;;6.10;99.90;;;;;;4978008;28;20139;-53
2023/03/29 02:50:29;;;;;;;6.60;3.72;;;6.10;99.90;;;;;;4988634;28;20056;-53
2023/03/29 02:53:04;;;;;;;5.47;3.60;;;6.10;99.90;;;;;;4990031;28;20581;-57
2023/03/29 02:55:33;;;;;;;7.90;3.80;;;6.10;99.90;;;;;;4992151;28;20694;-55
2023/03/29 02:58:05;;;;;;;6.53;3.85;;;6.10;99.90;;;;;;5002305;28;20039;-57
2023/03/29 03:00:32;;;;;;;7.18;3.47;;;6.10;99.90;;;;;;5004880;28;20563;-56
2023/03/29 03:02:58;;;;;;;6.22;3.88;;;6.20;99.90;;;;;;5007789;28;20033;-52
2023/03/29 03:05:24;;;;;;;5.07;3.45;;;6.20;99.90;;;;;;5010865;28;20557;-53
2023/03/29 03:07:53;;;;;;;6.63;3.90;;;6.20;99.90;;;;;;5009313;28;20038;-57
2023/03/29 03:10:18;;;;;;;5.47;3.80;;;6.20;99.90;;;;;;5004641;28;20200;-51
2023/03/29 03:12:44;;;;;;;8.02;4.03;;;6.20;99.90;;;;;;4990889;28;20089;-56
2023/03/29 03:15:10;;;;;;;7.47;3.97;;;6.20;99.90;;;;;;4992768;28;20076;-58
2023/03/29 03:17:38;;;;;;;7.30;4.03;;;6.20;99.90;;;;;;4984647;28;20042;-58
2023/03/29 03:20:13;;;;;;;11.20;4.07;;;6.20;99.90;;;;;;4999398;28;20045;-56
2023/03/29 03:22:47;;;;;;;10.30;4.53;;;6.20;99.90;;;;;;4984908;28;20093;-56
2023/03/29 03:25:19;;;;;;;9.55;4.00;;;6.20;99.90;;;;;;5005942;28;20111;-55
2023/03/29 03:27:46;;;;;;;8.55;4.47;;;6.20;99.90;;;;;;5011197;28;20377;-57
2023/03/29 03:30:12;;;;;;;7.80;3.97;;;6.20;99.90;;;;;;5002940;28;20080;-54
2023/03/29 03:32:38;;;;;;;9.15;4.18;;;6.20;99.90;;;;;;4989563;28;20077;-52
2023/03/29 03:35:04;;;;;;;7.13;4.13;;;6.20;99.90;;;;;;5014102;28;20046;-54
2023/03/29 03:37:30;;;;;;;9.85;4.63;;;6.20;99.90;;;;;;4995585;28;20046;-56
2023/03/29 03:39:56;;;;;;;7.35;4.20;;;6.20;99.90;;;;;;4989610;28;20484;-52
2023/03/29 03:42:22;;;;;;;8.05;4.00;;;6.20;99.90;;;;;;4987011;28;20058;-53
2023/03/29 03:44:48;;;;;;;7.78;4.13;;;6.20;99.90;;;;;;4997863;28;20045;-57
2023/03/29 03:47:14;;;;;;;9.57;4.47;;;6.20;99.90;;;;;;4992215;28;20041;-57
2023/03/29 03:49:40;;;;;;;11.27;4.03;;;6.20;99.90;;;;;;4992697;28;20497;-56
2023/03/29 03:52:07;;;;;;;7.22;4.60;;;6.30;99.90;;;;;;4999248;28;20100;-55
2023/03/29 03:54:33;;;;;;;7.05;4.55;;;6.30;99.90;;;;;;4979424;28;20038;-56
2023/03/29 03:56:59;;;;;;;8.02;4.70;;;6.20;99.90;;;;;;4995808;28;20125;-55
2023/03/29 03:59:25;;;;;;;8.45;4.45;;;6.30;99.90;;;;;;4990270;28;20056;-57
2023/03/29 04:01:51;;;;;;;8.25;4.20;;;6.30;99.90;;;;;;5006972;28;20476;-55
2023/03/29 04:04:18;;;;;;;8.20;4.72;;;6.30;99.90;;;;;;5011089;28;20394;-56
2023/03/29 04:06:44;;;;;;;9.55;4.18;;;6.30;99.90;;;;;;5005369;28;20404;-52
2023/03/29 04:09:10;;;;;;;8.85;4.65;;;6.30;99.90;;;;;;5012287;28;20053;-58
2023/03/29 04:11:36;;;;;;;8.65;4.88;;;6.30;99.90;;;;;;5003046;28;20038;-53
2023/03/29 04:14:03;;;;;;;8.75;4.60;;;6.20;99.90;;;;;;5001642;28;20041;-55
2023/03/29 04:16:29;;;;;;;7.47;4.82;;;6.30;99.90;;;;;;4992701;28;20050;-53
2023/03/29 04:18:55;;;;;;;6.70;4.10;;;6.30;99.90;;;;;;4994718;28;20038;-54
2023/03/29 04:21:20;;;;;;;8.63;4.40;;;6.30;99.90;;;;;;4992220;28;20386;-52
2023/03/29 04:23:46;;;;;;;9.52;5.05;;;6.30;99.90;;;;;;4994568;28;20073;-56
2023/03/29 04:26:13;;;;;;;8.10;4.75;;;6.30;99.90;;;;;;5005283;28;20120;-55
2023/03/29 04:28:40;;;;;;;7.63;4.68;;;6.30;99.90;;;;;;5009421;28;20192;-54
2023/03/29 04:31:15;;;;;;;7.72;4.82;;;6.30;99.90;;;;;;5005338;28;20040;-55
2023/03/29 04:33:41;;;;;;;10.30;4.75;;;6.30;99.90;;;;;;5003760;28;20038;-54
2023/03/29 04:36:08;;;;;;;9.68;5.43;;;6.30;99.90;;;;;;5011501;28;20099;-55
2023/03/29 04:38:34;;;;;;;8.60;4.97;;;6.30;99.90;;;;;;5010828;28;20109;-56
2023/03/29 04:41:03;;;;;;;8.18;5.00;;;6.30;99.90;;;;;;4995247;28;20428;-54
2023/03/29 04:43:30;;;;;;;9.55;5.10;;;6.30;99.90;;;;;;4992119;28;20088;-56
2023/03/29 04:45:57;;;;;;;10.27;5.45;;;6.30;99.90;;;;;;4969673;28;20042;-52
2023/03/29 04:48:23;;;;;;;10.10;5.47;;;6.30;99.90;;;;;;4989421;28;20053;-56
2023/03/29 04:50:49;;;;;;;11.13;4.78;;;6.30;99.90;;;;;;4987271;28;20041;-55
2023/03/29 04:53:15;;;;;;;8.70;5.30;;;6.30;99.90;;;;;;4999587;28;20328;-56
2023/03/29 04:55:41;;;;;;;9.55;5.53;;;6.30;99.90;;;;;;4969421;28;20052;-56
2023/03/29 04:58:07;;;;;;;9.70;5.10;;;6.30;99.90;;;;;;4973370;28;20034;-57
2023/03/29 05:00:33;;;;;;;11.45;6.00;;;6.20;99.90;;;;;;4968691;28;20113;-54
2023/03/29 05:02:59;;;;;;;11.75;5.30;;;6.30;99.90;;;;;;4964835;28;20489;-55
2023/03/29 05:05:26;;;;;;;9.57;5.88;;;6.30;99.90;;;;;;5003653;28;20048;-53
2023/03/29 05:07:51;;;;;;;9.73;5.65;;;6.30;99.90;;;;;;4989845;28;20115;-57
2023/03/29 05:10:17;;;;;;;9.02;5.55;;;6.30;99.90;;;;;;5001079;28;20502;-54
2023/03/29 05:12:43;;;;;;;13.25;5.57;;;6.30;99.90;;;;;;5010193;28;20465;-54
2023/03/29 05:15:09;;;;;;;9.27;5.40;;;6.30;99.90;;;;;;4992123;28;20042;-56
2023/03/29 05:17:35;;;;;;;10.02;5.85;;;6.30;99.90;;;;;;5009810;28;20396;-55
2023/03/29 05:20:08;;;;;;;10.38;5.80;;;6.30;99.90;;;;;;4983231;28;20050;-55
2023/03/29 05:22:35;;;;;;;9.82;5.65;;;6.30;99.90;;;;;;4991127;28;20477;-56
2023/03/29 05:25:01;;;;;;;9.52;6.07;;;6.30;99.90;;;;;;4992680;28;20058;-57
2023/03/29 05:27:27;;;;;;;11.63;6.82;;;6.40;99.90;;;;;;4991349;28;20041;-57
2023/03/29 05:29:53;;;;;;;10.70;6.35;;;6.40;99.90;;;;;;5009578;28;20045;-55
2023/03/29 05:32:18;;;;;;;12.32;6.22;;;6.40;99.90;;;;;;4988997;28;20096;-57
2023/03/29 05:34:44;;;;;;;9.95;5.95;;;6.30;99.90;;;;;;4992778;28;20057;-54
2023/03/29 05:37:10;;;;;;;13.25;7.38;;;6.40;99.90;;;;;;5001897;28;20523;-56
2023/03/29 05:39:36;;;;;;;10.07;7.43;;;6.40;99.90;;;;;;4990785;28;20041;-57
2023/03/29 05:42:03;;;;;;;13.23;7.35;;;6.40;99.90;;;;;;5004978;28;20060;-55
2023/03/29 05:44:29;;;;;;;11.43;6.97;;;6.40;99.90;;;;;;5011013;28;20155;-55
2023/03/29 05:46:56;;;;;;;10.95;7.35;;;6.30;99.90;;;;;;4987739;28;20576;-56
2023/03/29 05:49:22;;;;;;;16.23;7.85;;;6.40;99.90;;;;;;5006952;28;20056;-53
2023/03/29 05:51:47;;;;;;;13.25;8.00;;;6.40;99.90;;;;;;4972566;28;20050;-56
2023/03/29 05:54:14;;;;;;;12.02;7.35;;;6.40;99.90;;;;;;5007539;28;20070;-55
2023/03/29 05:56:39;;;;;;;14.75;8.02;;;6.40;99.90;;;;;;5012735;28;20041;-56
2023/03/29 05:59:07;;;;;;;11.43;8.02;;;6.40;99.90;;;;;;4998404;28;20068;-57
2023/03/29 06:01:33;;;;;;;11.52;7.70;;;6.40;99.90;;;;;;5004893;28;20045;-57
2023/03/29 06:03:59;;;;;;;12.90;7.90;;;6.40;99.90;;;;;;4987460;28;20034;-57
2023/03/29 06:06:25;;;;;;;11.13;8.23;;;6.40;99.90;;;;;;4989091;28;20521;-56
2023/03/29 06:08:51;;;;;;;13.23;8.80;;;6.40;99.90;;;;;;5009948;28;20042;-56
2023/03/29 06:11:16;;;;;;;17.88;9.05;;;6.40;99.90;;;;;;4985289;28;20054;-56
2023/03/29 06:13:42;;;;;;;16.02;9.82;;;6.30;99.90;;;;;;4974079;28;20046;-56
2023/03/29 06:16:09;;;;;;;16.02;9.20;;;6.40;99.90;;;;;;4990695;28;20034;-57
2023/03/29 06:18:38;;;;;;;17.17;8.18;;;6.40;99.90;;;;;;4989284;28;20041;-55
2023/03/29 06:21:05;;;;;;;17.25;8.75;;;6.40;99.90;;;;;;4988906;28;20412;-55
2023/03/29 06:23:31;;;;;;;12.15;8.40;;;6.50;99.90;;;;;;5008277;28;20564;-55
2023/03/29 06:25:59;;;;;;;12.73;8.90;;;6.50;99.90;;;;;;4995083;28;20144;-57
2023/03/29 06:28:25;;;;;;;13.68;8.90;;;6.50;99.90;;;;;;4987999;28;20045;-57
2023/03/29 06:30:55;;;;;;;14.48;9.60;;;6.50;99.90;;;;;;5007919;28;20045;-57
2023/03/29 06:33:21;;;;;;;15.52;9.23;;;6.60;99.90;;;;;;4991958;28;20521;-56
2023/03/29 06:35:48;;;;;;;13.90;8.57;;;6.70;99.90;;;;;;4992980;28;20085;-55
2023/03/29 06:38:15;;;;;;;14.52;7.70;;;6.60;99.90;;;;;;4987330;28;20555;-56
2023/03/29 06:40:42;;;;;;;12.57;8.57;;;6.60;99.90;;;;;;4989105;28;20174;-57
2023/03/29 06:43:07;;;;;;;16.48;9.48;;;6.70;99.90;;;;;;5007237;28;20052;-56
2023/03/29 06:45:36;;;;;;;13.23;8.27;;;6.70;99.90;;;;;;4989282;28;20049;-57
2023/03/29 06:48:02;;;;;;;13.27;8.10;;;6.70;99.90;;;;;;4991523;28;20065;-55
2023/03/29 06:50:29;;;;;;;17.30;8.40;;;6.70;99.90;;;;;;5011418;28;20045;-57
2023/03/29 06:52:56;;;;;;;19.08;9.15;;;6.70;99.90;;;;;;4987423;28;20052;-55
2023/03/29 06:55:22;;;;;;;15.10;8.27;;;6.70;99.90;;;;;;4989511;28;20051;-56
2023/03/29 06:57:48;;;;;;;13.88;8.30;;;6.80;99.90;;;;;;4995619;28;20047;-56
2023/03/29 07:00:26;;;;;;;15.52;8.88;;;6.80;99.90;;;;;;5006062;28;20038;-57
2023/03/29 07:02:53;;;;;;;13.85;9.18;;;6.80;99.90;;;;;;4992485;28;20374;-54
2023/03/29 07:05:20;;;;;;;13.63;8.32;;;6.90;99.90;;;;;;4994221;28;20485;-57
2023/03/29 07:07:53;;;;;;;15.60;8.65;;;6.90;99.90;;;;;;5012177;28;20046;-55
2023/03/29 07:10:31;;;;;;;16.35;8.02;;;7.00;99.90;;;;;;4977432;28;20072;-57
2023/03/29 07:12:59;;;;;;;10.40;7.25;;;7.00;99.90;;;;;;4987934;28;20038;-56
2023/03/29 07:15:26;;;;;;;12.98;7.70;;;7.00;99.90;;;;;;4999775;28;20042;-57
2023/03/29 07:17:52;;;;;;;12.95;7.93;;;7.00;99.90;;;;;;5002529;28;20081;-57
2023/03/29 07:20:21;;;;;;;11.63;7.72;;;7.10;99.90;;;;;;4988801;28;20513;-56
2023/03/29 07:22:49;;;;;;;15.27;8.00;;;7.10;99.90;;;;;;5013351;28;20042;-56
2023/03/29 07:25:17;;;;;;;12.10;7.88;;;7.10;99.90;;;;;;4989691;28;20539;-56
2023/03/29 07:27:44;;;;;;;14.57;8.27;;;7.20;99.90;;;;;;4996482;28;20044;-54
2023/03/29 07:30:12;;;;;;;12.85;8.68;;;7.20;99.90;;;;;;5018100;28;20041;-56
2023/03/29 07:32:40;;;;;;;13.43;7.82;;;7.20;99.90;;;;;;4992747;28;20076;-54
2023/03/29 07:35:07;;;;;;;12.75;7.53;;;7.30;99.90;;;;;;4988273;28;20042;-54
2023/03/29 07:37:36;;;;;;;11.77;7.15;;;7.30;99.90;;;;;;4988240;28;20476;-56
2023/03/29 07:40:08;;;;;;;12.68;7.70;;;7.30;99.90;;;;;;5006992;28;20062;-56
2023/03/29 07:42:37;;;;;;;12.35;7.70;;;7.40;99.90;;;;;;5009167;28;20133;-56
2023/03/29 07:45:07;;;;;;;12.45;7.53;;;7.40;99.90;;;;;;4985732;28;20408;-56
2023/03/29 07:47:34;;;;;;;10.30;7.32;;;7.50;99.90;;;;;;4983918;28;20057;-56
2023/03/29 07:50:00;;;;;;;10.20;7.70;;;7.50;99.90;;;;;;4995161;28;20077;-56
2023/03/29 07:52:29;;;;;;;12.02;8.07;;;7.50;99.90;;;;;;5006052;28;20196;-56
2023/03/29 07:54:55;;;;;;;12.55;8.02;;;7.60;99.90;;;;;;4992555;28;20388;-57
2023/03/29 07:57:22;;;;;;;16.13;7.95;;;7.60;99.90;;;;;;5011488;28;20054;-56
2023/03/29 07:59:48;;;;;;;14.32;8.25;;;7.70;99.90;;;;;;4991738;28;20125;-57
2023/03/29 08:02:14;;;;;;;13.73;8.15;;;7.70;99.90;;;;;;4995861;28;20120;-55
2023/03/29 08:04:40;;;;;;;11.25;7.40;;;7.70;99.90;;;;;;5012356;28;20040;-57
2023/03/29 08:07:06;;;;;;;11.75;7.53;;;7.70;99.90;;;;;;5008480;28;20245;-57
2023/03/29 08:09:32;;;;;;;10.70;7.03;;;7.80;99.90;;;;;;4987861;28;20046;-57
2023/03/29 08:11:58;;;;;;;11.73;7.60;;;7.80;99.90;;;;;;5003060;28;20046;-57
2023/03/29 08:14:24;;;;;;;13.73;8.30;;;7.90;99.90;;;;;;5001890;28;20499;-57
2023/03/29 08:16:51;;;;;;;11.75;7.90;;;7.90;99.90;;;;;;4998538;28;20561;-55
2023/03/29 08:19:17;;;;;;;12.38;7.85;;;7.90;99.90;;;;;;5002684;28;20065;-57
2023/03/29 08:21:43;;;;;;;13.18;7.40;;;8.00;99.90;;;;;;4999886;28;20077;-56
2023/03/29 08:24:09;;;;;;;11.30;7.80;;;8.00;99.90;;;;;;4997173;28;20498;-53
2023/03/29 08:26:34;;;;;;;20.40;8.02;;;8.00;99.90;;;;;;5007222;28;20033;-57
2023/03/29 08:29:00;;;;;;;11.50;7.30;;;8.10;99.90;;;;;;4991756;28;20077;-57
2023/03/29 08:31:26;;;;;;;14.88;7.90;;;8.10;99.90;;;;;;5009082;28;20429;-57
2023/03/29 08:33:52;;;;;;;11.45;7.22;;;8.10;99.90;;;;;;4993330;28;20045;-57
2023/03/29 08:36:18;;;;;;;10.65;7.70;;;8.20;99.90;;;;;;4998173;28;20077;-53
2023/03/29 08:38:44;;;;;;;12.82;8.23;;;8.30;99.90;;;;;;4992340;28;20034;-56
2023/03/29 08:42:18;;;;;;;14.80;7.70;;;8.30;99.90;;;;;;5008304;28;20053;-57
2023/03/29 08:44:44;;;;;;;12.88;7.63;;;8.40;99.90;;;;;;4941496;28;20051;-56
2023/03/29 08:47:30;;;;;;;13.63;7.20;;;8.40;99.90;;;;;;4996838;28;20077;-57
2023/03/29 08:49:57;;;;;;;10.55;7.53;;;8.40;99.90;;;;;;5006699;28;20511;-57
2023/03/29 08:52:37;;;;;;;12.90;7.88;;;8.50;99.90;;;;;;4960333;28;20093;-57
2023/03/29 08:55:11;;;;;;;13.02;8.15;;;8.60;99.90;;;;;;5004879;28;20038;-57
2023/03/29 08:57:49;;;;;;;11.38;7.65;;;8.60;99.90;;;;;;4992488;28;20042;-57
2023/03/29 09:00:36;;;;;;;15.65;7.93;;;8.70;99.90;;;;;;5009632;28;20118;-57
2023/03/29 09:03:12;;;;;;;12.15;7.78;;;8.70;99.90;;;;;;4988337;28;20062;-57
2023/03/29 09:05:46;;;;;;;14.45;7.93;;;8.80;99.90;;;;;;5011034;28;20034;-57
2023/03/29 09:08:15;;;;;;;;;;;8.80;99.90;;;;;;5012204;28;20169;-57
2023/03/29 09:10:51;;;;;;;12.75;7.68;;;8.90;99.90;;;;;;5009082;28;19925;-57
2023/03/29 09:13:52;;;;;;;14.00;9.13;;;9.00;99.90;;;;;;4992258;28;20118;-56
2023/03/29 09:16:32;;;;;;;15.45;10.25;;;9.10;99.90;;;;;;4974788;28;20046;-56
2023/03/29 09:19:49;;;;;;;12.02;8.20;;;9.20;99.90;;;;;;5004530;28;20030;-56
2023/03/29 09:22:34;;;;;;;13.45;8.65;;;9.20;99.90;;;;;;4969989;28;20053;-57
2023/03/29 09:25:24;;;;;;;16.88;9.25;;;9.30;99.90;;;;;;4998987;28;20065;-57
2023/03/29 09:28:18;;;;;;;15.48;8.60;;;9.30;99.90;;;;;;5009821;28;20072;-57
2023/03/29 09:30:54;;;;;;;14.50;7.63;;;9.40;99.90;;;;;;5011322;28;20041;-57
2023/03/29 09:33:41;;;;;;;14.85;8.85;;;9.40;99.90;;;;;;4992295;28;20482;-56
2023/03/29 09:36:30;;;;;;;13.93;9.15;;;9.50;99.90;;;;;;4979360;28;20402;-57
2023/03/29 09:38:56;;;;;;;17.38;8.35;;;9.50;99.90;;;;;;4993214;28;20044;-56
2023/03/29 09:41:29;;;;;;;13.30;8.52;;;9.50;99.90;;;;;;5010591;28;20034;-55
2023/03/29 09:43:57;;;;;;;14.55;8.48;;;9.50;99.90;;;;;;4991812;28;20045;-57
2023/03/29 09:46:27;;;;;;;14.48;8.77;;;9.50;99.90;;;;;;5006917;28;20444;-57
2023/03/29 09:48:55;;;;;;;18.00;9.63;;;9.60;99.90;;;;;;5011197;28;20497;-57
2023/03/29 09:51:25;;;;;;;13.93;9.73;;;9.60;99.90;;;;;;4991149;28;20041;-56
2023/03/29 09:53:53;;;;;;;18.63;9.43;;;9.70;99.90;;;;;;5004589;28;20037;-57
2023/03/29 09:56:19;;;;;;;15.57;9.65;;;9.70;99.90;;;;;;5005182;28;20121;-57
2023/03/29 09:58:45;;;;;;;14.07;9.23;;;9.70;99.90;;;;;;4999338;28;20038;-57
2023/03/29 10:01:14;;;;;;;16.52;9.93;;;9.70;99.90;;;;;;5016501;28;20116;-57
2023/03/29 10:03:41;;;;;;;19.55;11.50;;;9.70;99.90;;;;;;4981475;28;20042;-57
2023/03/29 10:06:10;;;;;;;17.58;10.40;;;9.70;99.90;;;;;;5013893;28;20042;-55
2023/03/29 10:08:48;;;;;;;20.08;11.32;;;9.80;99.90;;;;;;4987453;28;20080;-56
2023/03/29 10:11:35;;;;;;;21.17;11.15;;;9.80;99.90;;;;;;5003900;28;20125;-56
2023/03/29 10:14:28;;;;;;;20.90;11.93;;;10.00;99.90;;;;;;5019586;28;20034;-57
2023/03/29 10:16:55;;;;;;;19.05;12.43;;;10.00;99.90;;;;;;5003334;28;20050;-57
2023/03/29 10:19:33;;;;;;;22.98;13.88;;;10.10;99.90;;;;;;4993036;28;20046;-57
2023/03/29 10:22:23;;;;;;;26.17;13.50;;;10.30;99.90;;;;;;5001689;28;20041;-57
2023/03/29 10:24:51;;;;;;;23.15;13.05;;;10.40;99.90;;;;;;4985329;28;20050;-57
2023/03/29 10:27:24;;;;;;;18.17;11.60;;;10.40;99.90;;;;;;5003035;28;20046;-56
2023/03/29 10:29:51;;;;;;;20.30;12.90;;;10.50;99.90;;;;;;4991497;28;20080;-56
2023/03/29 10:32:35;;;;;;;25.90;14.45;;;10.60;99.90;;;;;;4975885;28;20048;-57
2023/03/29 10:35:20;;;;;;;24.45;14.30;;;10.70;99.90;;;;;;5005379;28;20116;-57
2023/03/29 10:37:50;;;;;;;26.67;14.77;;;10.80;99.90;;;;;;4993166;28;20049;-57
2023/03/29 10:40:32;;;;;;;20.90;14.32;;;10.80;99.90;;;;;;4975289;28;20488;-57
2023/03/29 10:43:00;;;;;;;28.25;16.17;;;10.90;99.90;;;;;;5005158;28;20099;-56
2023/03/29 10:45:29;;;;;;;22.42;15.50;;;10.90;99.90;;;;;;5005529;28;20062;-55
2023/03/29 10:47:57;;;;;;;24.52;15.27;;;10.90;99.90;;;;;;4992367;28;20308;-57
2023/03/29 10:50:25;;;;;;;23.88;16.17;;;11.00;99.90;;;;;;5017506;28;20091;-56
2023/03/29 10:52:51;;;;;;;23.30;15.52;;;11.00;99.90;;;;;;4977922;28;20073;-57
2023/03/29 10:55:18;;;;;;;29.73;17.38;;;11.00;99.90;;;;;;4982010;28;20177;-55
2023/03/29 10:58:02;;;;;;;24.67;15.65;;;11.10;99.90;;;;;;5012259;28;20033;-56
2023/03/29 11:00:57;;;;;;;26.98;15.95;;;11.20;99.90;;;;;;4998305;28;20082;-57
2023/03/29 11:03:42;;;;;;;25.83;14.73;;;11.30;99.90;;;;;;4999591;28;20113;-57
2023/03/29 11:06:33;;;;;;;22.13;14.98;;;11.30;99.90;;;;;;4994022;28;20049;-55
2023/03/29 11:09:05;;;;;;;31.38;18.48;;;11.40;99.90;;;;;;5012503;28;20033;-56
2023/03/29 11:11:49;;;;;;;25.08;15.70;;;11.40;99.90;;;;;;4989784;28;20080;-57
2023/03/29 11:14:40;;;;;;;25.48;15.48;;;11.50;99.90;;;;;;4997918;28;20050;-57
2023/03/29 11:17:08;;;;;;;23.88;15.55;;;11.50;99.90;;;;;;5008639;28;20308;-57
2023/03/29 11:19:55;;;;;;;24.48;15.80;;;11.50;99.90;;;;;;4991950;28;20041;-58
2023/03/29 11:22:45;;;;;;;23.02;15.35;;;11.40;99.90;;;;;;5010775;28;20049;-57
2023/03/29 11:25:20;;;;;;;27.45;15.30;;;11.50;99.90;;;;;;5006758;28;20291;-57
2023/03/29 11:28:10;;;;;;;25.40;15.73;;;11.50;99.90;;;;;;4993549;28;20596;-56
2023/03/29 11:30:41;;;;;;;23.13;15.00;;;11.60;99.90;;;;;;4999181;28;20049;-58
2023/03/29 11:33:15;;;;;;;24.63;15.95;;;11.60;99.90;;;;;;5011869;28;20290;-56
2023/03/29 11:36:04;;;;;;;27.13;16.42;;;11.60;99.90;;;;;;4987800;28;20124;-56
2023/03/29 11:38:45;;;;;;;25.45;15.93;;;11.60;99.90;;;;;;5019712;28;20050;-56
2023/03/29 11:41:33;;;;;;;25.55;15.48;;;11.60;99.90;;;;;;4992316;28;20088;-57
2023/03/29 11:44:10;;;;;;;31.08;16.90;;;11.60;99.90;;;;;;4987075;28;20097;-57
2023/03/29 11:46:41;;;;;;;25.80;16.70;;;11.60;99.90;;;;;;4992771;28;20096;-57
2023/03/29 11:49:13;;;;;;;26.88;15.20;;;11.70;99.90;;;;;;4973645;28;20101;-57
2023/03/29 11:51:55;;;;;;;23.55;16.10;;;11.70;99.90;;;;;;4992199;28;20664;-57
2023/03/29 11:54:27;;;;;;;28.73;17.98;;;11.80;99.90;;;;;;4989252;28;20054;-57
2023/03/29 11:57:16;;;;;;;26.02;17.00;;;11.80;99.90;;;;;;5007573;28;20146;-57
2023/03/29 12:00:05;;;;;;;24.67;16.27;;;12.00;99.90;;;;;;4961011;28;20045;-58
2023/03/29 12:02:34;;;;;;;24.65;16.83;;;12.00;99.90;;;;;;4987305;28;20064;-58
2023/03/29 12:05:10;;;;;;;26.30;16.38;;;12.00;99.90;;;;;;5008247;28;20469;-57
2023/03/29 12:07:49;;;;;;;22.95;17.10;;;12.10;99.90;;;;;;5014865;28;20652;-56
2023/03/29 12:10:26;;;;;;;30.00;17.65;;;12.30;99.90;;;;;;4997138;28;20497;-57
2023/03/29 12:13:21;;;;;;;29.45;17.90;;;12.40;99.90;;;;;;5000439;28;20038;-56
2023/03/29 12:15:57;;;;;;;28.92;16.65;;;12.40;99.90;;;;;;4987470;28;20100;-58
2023/03/29 12:18:29;;;;;;;29.63;17.63;;;12.30;99.90;;;;;;4980022;28;20053;-59
2023/03/29 12:21:00;;;;;;;28.92;17.08;;;12.30;99.90;;;;;;5004704;28;20042;-56
2023/03/29 12:23:32;;;;;;;29.48;18.48;;;12.20;99.90;;;;;;4993474;28;20037;-59
2023/03/29 12:26:23;;;;;;;29.02;16.55;;;12.20;99.90;;;;;;4991119;28;20132;-58
2023/03/29 12:29:07;;;;;;;23.33;16.88;;;12.20;99.90;;;;;;4986616;28;20084;-58
2023/03/29 12:31:52;;;;;;;24.05;16.92;;;12.10;99.90;;;;;;4995635;28;20116;-57
2023/03/29 12:34:24;;;;;;;28.70;17.85;;;12.00;99.90;;;;;;5003733;28;20049;-58
2023/03/29 12:37:15;;;;;;;24.35;17.65;;;12.00;99.90;;;;;;5000389;28;20049;-56
2023/03/29 12:39:41;;;;;;;28.45;17.33;;;12.00;99.90;;;;;;5000511;28;20265;-57
2023/03/29 12:42:20;;;;;;;27.00;17.05;;;12.00;99.90;;;;;;5012338;28;20041;-58
2023/03/29 12:44:56;;;;;;;26.35;17.70;;;12.00;99.90;;;;;;4994391;28;20043;-58
2023/03/29 12:47:25;;;;;;;22.90;16.67;;;12.00;99.90;;;;;;4992845;28;20056;-59
2023/03/29 12:49:59;;;;;;;24.48;17.88;;;12.00;99.90;;;;;;5000408;28;20050;-56
2023/03/29 12:52:32;;;;;;;26.98;20.45;;;12.00;99.90;;;;;;4986376;28;20121;-59
2023/03/29 12:55:00;;;;;;;25.80;17.58;;;12.10;99.90;;;;;;5004080;28;20505;-56
2023/03/29 12:57:59;;;;;;;27.23;18.45;;;12.00;99.90;;;;;;5013288;28;20049;-58
2023/03/29 13:00:42;;;;;;;29.83;19.30;;;12.00;99.90;;;;;;5010910;28;20400;-58
2023/03/29 13:03:38;;;;;;;26.08;19.52;;;12.00;99.90;;;;;;4985787;28;20084;-58
2023/03/29 13:06:08;;;;;;;28.70;18.77;;;12.00;99.90;;;;;;4986047;28;20046;-57
2023/03/29 13:08:38;;;;;;;28.40;20.40;;;12.10;99.90;;;;;;5020338;28;20045;-58